Time;durP1;ratioP1;P1;durP2;ratioP2;P2;SDS_P1;SDS_P2;PMS_P1;PMS_P2;Temp;Humidity;BMP_temperature;BMP_pressure;BME280_temperature;BME280_humidity;BME280_pressure;Samples;Min_cycle;Max_cycle;Signal;HPM_P1;HPM_P2
2022/01/27 00:02:45;;;;;;;37.07;21.43;;;;;;;-1.37;100.00;100331.31;4860245;29;20196;-80
2022/01/27 00:05:21;;;;;;;37.17;21.60;;;;;;;-1.15;100.00;100346.13;4861294;29;20208;-80
2022/01/27 00:08:07;;;;;;;36.70;21.77;;;;;;;-1.06;100.00;100361.16;4859550;29;20176;-80
2022/01/27 00:13:16;;;;;;;36.70;20.20;;;;;;;-0.18;100.00;100351.78;4845267;29;20211;-80
2022/01/27 00:15:47;;;;;;;31.37;19.17;;;;;;;-0.03;100.00;100370.69;4860088;29;20196;-80
2022/01/27 00:18:18;;;;;;;33.80;19.63;;;;;;;0.28;100.00;100369.66;4860628;29;20188;-80
2022/01/27 00:20:48;;;;;;;34.53;19.07;;;;;;;0.49;100.00;100353.75;4863827;29;20283;-80
2022/01/27 00:23:15;;;;;;;30.27;18.23;;;;;;;0.78;100.00;100351.13;4863918;29;20192;-80
2022/01/27 00:25:42;;;;;;;29.37;18.00;;;;;;;0.80;100.00;100307.78;4848587;29;20597;-80
2022/01/27 00:28:09;;;;;;;30.03;18.73;;;;;;;1.03;100.00;100337.31;4863767;29;20199;-80
2022/01/27 00:30:38;;;;;;;29.93;18.43;;;;;;;1.08;100.00;100323.69;4848537;29;20194;-80
2022/01/27 00:33:05;;;;;;;31.10;18.43;;;;;;;1.07;100.00;100330.81;4848463;29;20520;-80
2022/01/27 00:35:32;;;;;;;31.70;19.33;;;;;;;1.11;100.00;100337.47;4848451;29;20658;-80
2022/01/27 00:38:00;;;;;;;28.40;18.57;;;;;;;1.26;100.00;100343.94;4863464;29;20244;-80
2022/01/27 00:40:27;;;;;;;32.20;19.40;;;;;;;1.25;100.00;100357.31;4848244;29;20196;-80
2022/01/27 00:42:54;;;;;;;30.87;18.70;;;;;;;1.30;100.00;100344.50;4848447;29;20219;-80
2022/01/27 00:45:23;;;;;;;26.97;18.00;;;;;;;1.38;100.00;100336.69;4864768;29;20508;-79
2022/01/27 00:47:50;;;;;;;29.53;18.37;;;;;;;1.53;100.00;100353.75;4848641;29;20189;-80
2022/01/27 00:50:18;;;;;;;28.67;18.73;;;;;;;1.62;100.00;100358.16;4832958;29;20189;-80
2022/01/27 00:52:52;;;;;;;28.07;18.00;;;;;;;1.65;100.00;100365.78;4863322;29;20212;-80
2022/01/27 00:55:21;;;;;;;27.30;18.20;;;;;;;1.62;100.00;100358.16;4863244;29;20208;-80
2022/01/27 01:00:24;;;;;;;27.00;17.47;;;;;;;1.82;100.00;100358.09;4848224;29;20189;-80
2022/01/27 01:02:57;;;;;;;29.03;18.87;;;;;;;1.83;100.00;100363.22;4848895;29;20188;-80
2022/01/27 01:07:57;;;;;;;29.53;17.83;;;;;;;2.01;100.00;100385.25;4848329;29;20192;-80
2022/01/27 01:15:55;;;;;;;28.77;17.70;;;;;;;1.88;100.00;100350.41;4850250;29;20180;-80
2022/01/27 01:29:24;;;;;;;28.43;17.77;;;;;;;1.88;100.00;100350.41;4850044;29;20180;-80
2022/01/27 01:34:29;;;;;;;26.73;16.47;;;;;;;2.00;100.00;100354.53;4847419;29;20269;-80
2022/01/27 01:36:59;;;;;;;28.67;17.13;;;;;;;1.93;100.00;100353.44;4862562;29;20240;-80
2022/01/27 01:39:30;;;;;;;25.73;15.57;;;;;;;2.03;100.00;100356.03;4832150;29;20264;-80
2022/01/27 01:41:58;;;;;;;25.60;16.27;;;;;;;1.86;100.00;100341.81;4847242;29;20200;-80
2022/01/27 01:44:25;;;;;;;26.00;15.30;;;;;;;2.14;100.00;100355.84;4847329;29;20192;-80
2022/01/27 01:46:53;;;;;;;23.70;15.17;;;;;;;1.96;100.00;100339.13;4847262;29;20215;-80
2022/01/27 01:49:23;;;;;;;25.07;15.33;;;;;;;2.09;100.00;100344.88;4832218;29;20216;-80
2022/01/27 01:51:49;;;;;;;25.43;15.37;;;;;;;2.07;100.00;100360.03;4847216;29;20215;-80
2022/01/27 01:54:16;;;;;;;26.00;15.90;;;;;;;1.85;100.00;100334.84;4831955;29;20193;-80
2022/01/27 01:56:43;;;;;;;26.37;16.77;;;;;;;1.95;100.00;100322.41;4831901;29;20212;-80
2022/01/27 01:59:11;;;;;;;25.57;16.00;;;;;;;2.06;100.00;100335.41;4831809;29;20196;-80
2022/01/27 02:01:39;;;;;;;26.00;16.20;;;;;;;2.02;100.00;100327.94;4846871;29;20204;-80
2022/01/27 02:04:09;;;;;;;24.97;15.47;;;;;;;1.99;100.00;100320.31;4831618;29;20202;-80
2022/01/27 02:06:46;;;;;;;28.30;16.90;;;;;;;1.95;100.00;100340.09;4847049;29;20545;-80
2022/01/27 02:19:59;;;;;;;26.83;16.63;;;;;;;2.01;100.00;100318.34;4849204;29;20192;-80
2022/01/27 02:22:26;;;;;;;25.47;15.40;;;;;;;1.93;100.00;100319.09;4816087;29;20611;-80
2022/01/27 02:24:53;;;;;;;27.30;16.83;;;;;;;1.93;100.00;100326.16;4831194;29;20283;-80
2022/01/27 02:27:21;;;;;;;25.20;15.40;;;;;;;1.94;100.00;100304.06;4846582;29;20211;-80
2022/01/27 02:29:48;;;;;;;23.03;14.77;;;;;;;2.15;100.00;100310.72;4831347;29;20530;-80
2022/01/27 02:32:16;;;;;;;23.73;16.20;;;;;;;2.08;100.00;100304.41;4846248;29;20196;-80
2022/01/27 02:34:44;;;;;;;25.50;16.37;;;;;;;1.91;100.00;100305.19;4846344;29;20197;-80
2022/01/27 02:37:11;;;;;;;22.23;15.00;;;;;;;2.00;100.00;100304.31;4846293;29;20212;-80
2022/01/27 02:39:38;;;;;;;25.73;15.63;;;;;;;1.92;100.00;100312.13;4846025;29;20335;-80
2022/01/27 02:42:11;;;;;;;26.73;16.30;;;;;;;1.91;100.00;100301.72;4845661;29;20497;-80
2022/01/27 02:44:53;;;;;;;24.83;15.67;;;;;;;1.98;100.00;100318.63;4846248;29;20173;-80
2022/01/27 02:47:22;;;;;;;25.00;15.60;;;;;;;1.95;100.00;100313.66;4845884;29;20197;-80
2022/01/27 02:49:49;;;;;;;25.97;16.63;;;;;;;1.96;100.00;100312.69;4830945;29;20807;-80
2022/01/27 02:52:16;;;;;;;25.43;15.67;;;;;;;2.06;100.00;100311.63;4846009;29;20195;-80
2022/01/27 02:54:43;;;;;;;24.80;15.43;;;;;;;2.02;100.00;100312.06;4846097;29;20196;-80
2022/01/27 02:57:25;;;;;;;26.87;15.20;;;;;;;2.12;100.00;100305.75;4847872;29;20218;-80
2022/01/27 02:59:53;;;;;;;24.33;15.43;;;;;;;2.02;100.00;100298.84;4846133;29;20267;-80
2022/01/27 03:02:20;;;;;;;24.93;15.80;;;;;;;1.93;100.00;100305.03;4845790;29;20200;-80
2022/01/27 03:04:47;;;;;;;24.73;15.77;;;;;;;2.01;100.00;100303.31;4846030;29;20589;-80
2022/01/27 03:07:14;;;;;;;26.43;16.30;;;;;;;1.97;100.00;100311.69;4845737;29;20495;-80
2022/01/27 03:09:42;;;;;;;25.40;15.87;;;;;;;2.05;100.00;100315.25;4846015;29;20249;-80
2022/01/27 03:12:13;;;;;;;25.30;16.30;;;;;;;1.89;100.00;100314.25;4845588;29;20597;-80
2022/01/27 03:14:41;;;;;;;27.07;16.90;;;;;;;1.75;100.00;100297.91;4830943;29;20299;-80
2022/01/27 03:17:09;;;;;;;25.80;16.10;;;;;;;1.91;100.00;100307.84;4830262;29;20220;-80
2022/01/27 03:19:37;;;;;;;25.70;16.73;;;;;;;1.75;100.00;100308.47;4830581;29;20223;-80
2022/01/27 03:22:05;;;;;;;27.20;16.93;;;;;;;1.71;100.00;100304.47;4845472;29;20192;-80
2022/01/27 03:24:32;;;;;;;26.87;16.70;;;;;;;1.78;100.00;100304.69;4845615;29;20657;-80
2022/01/27 03:27:00;;;;;;;23.70;15.73;;;;;;;1.73;100.00;100305.13;4845434;29;20573;-80
2022/01/27 03:29:26;;;;;;;29.57;16.90;;;;;;;1.71;100.00;100293.91;4861956;29;20195;-80
2022/01/27 03:31:54;;;;;;;26.37;16.50;;;;;;;1.74;100.00;100293.59;4830391;29;20631;-80
2022/01/27 03:34:21;;;;;;;24.17;15.90;;;;;;;1.71;100.00;100296.53;4830326;29;20196;-80
2022/01/27 03:36:49;;;;;;;26.27;16.33;;;;;;;1.88;100.00;100299.34;4845336;29;20283;-80
2022/01/27 03:39:18;;;;;;;27.33;16.83;;;;;;;1.74;100.00;100304.16;4860616;29;20497;-80
2022/01/27 03:41:50;;;;;;;25.20;16.43;;;;;;;1.85;100.00;100294.38;4860576;29;20506;-80
2022/01/27 03:44:21;;;;;;;26.93;16.73;;;;;;;1.78;100.00;100304.69;4830035;29;20720;-80
2022/01/27 03:46:49;;;;;;;26.20;16.17;;;;;;;1.71;100.00;100293.91;4860473;29;20184;-80
2022/01/27 03:49:16;;;;;;;26.00;16.53;;;;;;;1.90;100.00;100302.69;4845295;29;20203;-80
2022/01/27 03:51:45;;;;;;;27.63;17.87;;;;;;;1.81;100.00;100298.28;4851850;29;20206;-80
2022/01/27 03:54:13;;;;;;;29.03;17.00;;;;;;;1.71;100.00;100285.13;4824748;29;20205;-80
2022/01/27 03:56:39;;;;;;;26.07;17.27;;;;;;;1.64;100.00;100286.69;4841292;29;20284;-80
2022/01/27 03:59:06;;;;;;;27.60;17.97;;;;;;;1.63;100.00;100279.75;4840510;29;20192;-80
2022/01/27 04:01:34;;;;;;;28.03;17.20;;;;;;;1.74;100.00;100292.75;4841696;29;20231;-80
2022/01/27 04:04:02;;;;;;;29.90;17.80;;;;;;;1.47;100.00;100295.38;4841807;29;20259;-80
2022/01/27 04:06:34;;;;;;;29.30;18.73;;;;;;;1.52;100.00;100280.78;4826661;29;20685;-80
2022/01/27 04:09:03;;;;;;;29.47;17.67;;;;;;;1.59;100.00;100296.84;4826473;29;20189;-79
2022/01/27 04:11:30;;;;;;;30.80;19.33;;;;;;;1.54;100.00;100305.22;4841595;29;20201;-80
2022/01/27 04:13:57;;;;;;;27.43;17.73;;;;;;;1.52;100.00;100282.59;4826779;29;20193;-80
2022/01/27 04:16:24;;;;;;;27.20;17.80;;;;;;;1.58;100.00;100287.28;4826626;29;20208;-80
2022/01/27 04:18:50;;;;;;;27.50;17.70;;;;;;;1.59;100.00;100287.13;4841652;29;20217;-80
2022/01/27 04:21:17;;;;;;;28.77;18.47;;;;;;;1.59;100.00;100292.41;4826506;29;20273;-80
2022/01/27 04:23:44;;;;;;;28.93;18.30;;;;;;;1.56;100.00;100270.75;4826364;29;20208;-80
2022/01/27 04:26:14;;;;;;;29.77;18.80;;;;;;;1.53;100.00;100274.53;4841556;29;20204;-80
2022/01/27 04:28:42;;;;;;;28.73;18.03;;;;;;;1.49;100.00;100259.94;4826221;29;20185;-80
2022/01/27 04:31:10;;;;;;;27.00;18.50;;;;;;;1.50;100.00;100273.97;4826738;29;20598;-80
2022/01/27 04:33:39;;;;;;;29.70;19.10;;;;;;;1.42;100.00;100274.69;4841538;29;20193;-79
2022/01/27 04:36:15;;;;;;;29.67;19.37;;;;;;;1.28;100.00;100272.53;4841288;29;20200;-80
2022/01/27 04:38:55;;;;;;;27.90;18.53;;;;;;;1.47;100.00;100277.75;4842518;29;20224;-80
2022/01/27 04:41:32;;;;;;;27.00;18.30;;;;;;;1.52;100.00;100274.66;4855211;29;20195;-80
2022/01/27 04:44:21;;;;;;;27.40;17.23;;;;;;;1.60;100.00;100269.47;4842465;29;20189;-80
2022/01/27 04:46:55;;;;;;;28.87;18.97;;;;;;;1.44;100.00;100269.28;4841332;29;20201;-80
2022/01/27 04:49:23;;;;;;;27.60;17.50;;;;;;;1.41;100.00;100274.84;4841328;29;20196;-80
2022/01/27 04:51:49;;;;;;;26.43;17.83;;;;;;;1.27;100.00;100270.88;4841322;29;20193;-80
2022/01/27 04:54:26;;;;;;;26.67;17.27;;;;;;;1.16;100.00;100258.69;4826485;29;20509;-80
2022/01/27 04:56:53;;;;;;;23.73;16.73;;;;;;;0.93;100.00;100264.47;4856661;29;20283;-80
2022/01/27 04:59:25;;;;;;;23.27;16.73;;;;;;;0.61;100.00;100235.75;4856522;29;20204;-80
2022/01/27 05:01:58;;;;;;;24.77;17.47;;;;;;;0.45;100.00;100236.34;4842011;29;20185;-80
2022/01/27 05:04:30;;;;;;;22.97;16.90;;;;;;;0.35;100.00;100244.25;4856403;29;20201;-81
2022/01/27 05:06:57;;;;;;;26.33;18.10;;;;;;;0.13;100.00;100230.53;4844617;29;20193;-79
2022/01/27 05:09:24;;;;;;;24.53;17.13;;;;;;;0.06;100.00;100245.22;4859992;29;20205;-80
2022/01/27 05:11:59;;;;;;;23.73;17.37;;;;;;;-0.03;100.00;100244.25;4845563;29;20253;-80
2022/01/27 05:14:26;;;;;;;24.60;17.53;;;;;;;-0.18;100.00;100258.78;4845594;29;20184;-80
2022/01/27 05:16:53;;;;;;;25.03;18.20;;;;;;;-0.22;100.00;100260.84;4859841;29;20507;-80
2022/01/27 05:19:20;;;;;;;22.93;16.67;;;;;;;-0.28;100.00;100263.22;4844274;29;20221;-80
2022/01/27 05:21:47;;;;;;;23.73;16.50;;;;;;;-0.39;100.00;100263.31;4844176;29;20201;-80
2022/01/27 05:24:21;;;;;;;24.57;17.07;;;;;;;-0.47;100.00;100250.81;4859013;29;20586;-80
2022/01/27 05:26:48;;;;;;;23.83;16.63;;;;;;;-0.51;100.00;100244.97;4859710;29;20272;-80
2022/01/27 05:29:15;;;;;;;23.57;16.90;;;;;;;-0.51;100.00;100247.59;4844475;29;20277;-80
2022/01/27 05:31:43;;;;;;;25.20;17.60;;;;;;;-0.71;100.00;100230.09;4844146;29;20232;-80
2022/01/27 05:34:10;;;;;;;27.10;17.20;;;;;;;-0.75;100.00;100248.91;4859238;29;20201;-80
2022/01/27 05:36:37;;;;;;;26.30;17.77;;;;;;;-0.91;100.00;100237.06;4828902;29;20203;-80
2022/01/27 05:39:04;;;;;;;26.97;17.03;;;;;;;-0.91;100.00;100237.06;4843789;29;20252;-80
2022/01/27 05:41:30;;;;;;;27.50;18.67;;;;;;;-0.95;100.00;100248.84;4859262;29;20197;-80
2022/01/27 05:43:57;;;;;;;26.63;18.50;;;;;;;-0.98;100.00;100245.63;4859248;29;20189;-80
2022/01/27 05:46:24;;;;;;;26.23;18.60;;;;;;;-1.05;100.00;100242.69;4843945;29;20511;-80
2022/01/27 05:48:51;;;;;;;27.90;18.67;;;;;;;-1.18;100.00;100238.59;4859252;29;20228;-80
2022/01/27 05:51:18;;;;;;;24.20;17.73;;;;;;;-1.14;100.00;100224.22;4859008;29;20185;-80
2022/01/27 05:53:45;;;;;;;25.67;18.33;;;;;;;-1.20;100.00;100240.50;4844791;29;20204;-80
2022/01/27 05:56:12;;;;;;;29.30;18.97;;;;;;;-1.24;100.00;100231.22;4843697;29;20204;-80
2022/01/27 05:58:38;;;;;;;27.50;18.30;;;;;;;-1.28;100.00;100242.97;4858876;29;20259;-80
2022/01/27 06:01:05;;;;;;;28.00;18.97;;;;;;;-1.45;100.00;100229.47;4858902;29;20185;-80
2022/01/27 06:03:32;;;;;;;29.87;19.77;;;;;;;-1.49;100.00;100243.78;4859119;29;20626;-80
2022/01/27 06:05:58;;;;;;;29.70;18.77;;;;;;;-1.54;100.00;100238.06;4858782;29;20201;-80
2022/01/27 06:08:28;;;;;;;30.23;20.47;;;;;;;-1.57;100.00;100242.75;4858952;29;20185;-80
2022/01/27 06:10:56;;;;;;;27.37;18.47;;;;;;;-1.68;100.00;100253.34;4858455;29;20203;-80
2022/01/27 06:13:23;;;;;;;31.43;19.17;;;;;;;-1.70;100.00;100252.63;4858897;29;20213;-80
2022/01/27 06:15:49;;;;;;;31.07;19.57;;;;;;;-1.68;100.00;100264.66;4857904;29;20201;-80
2022/01/27 06:18:17;;;;;;;31.43;19.87;;;;;;;-1.78;100.00;100253.28;4858502;29;20434;-80
2022/01/27 06:20:45;;;;;;;29.97;19.10;;;;;;;-1.81;100.00;100272.72;4858692;29;20197;-80
2022/01/27 06:23:13;;;;;;;28.00;18.60;;;;;;;-1.82;100.00;100260.53;4843224;29;20228;-80
2022/01/27 06:25:41;;;;;;;29.03;19.20;;;;;;;-1.99;100.00;100250.59;4843257;29;20197;-80
2022/01/27 06:28:08;;;;;;;31.83;19.33;;;;;;;-1.95;100.00;100252.00;4858428;29;20200;-80
2022/01/27 06:30:35;;;;;;;30.67;19.57;;;;;;;-2.03;100.00;100243.94;4858334;29;20193;-80
2022/01/27 06:33:03;;;;;;;28.63;19.33;;;;;;;-1.96;100.00;100254.78;4827974;29;20201;-80
2022/01/27 06:35:30;;;;;;;29.57;19.03;;;;;;;-1.95;100.00;100257.25;4858286;29;20590;-80
2022/01/27 06:37:57;;;;;;;34.67;20.47;;;;;;;-2.07;100.00;100237.25;4858318;29;20219;-80
2022/01/27 06:40:24;;;;;;;31.67;20.00;;;;;;;-1.99;100.00;100250.59;4857999;29;20233;-80
2022/01/27 06:42:51;;;;;;;30.00;19.60;;;;;;;-1.98;100.00;100265.41;4858361;29;20637;-80
2022/01/27 06:45:18;;;;;;;33.13;19.60;;;;;;;-1.95;100.00;100262.50;4827863;29;20614;-80
2022/01/27 06:47:45;;;;;;;30.33;19.27;;;;;;;-2.00;100.00;100248.91;4858299;29;20280;-80
2022/01/27 06:50:12;;;;;;;28.97;19.13;;;;;;;-2.01;100.00;100259.56;4842699;29;20279;-80
2022/01/27 06:52:41;;;;;;;28.40;18.33;;;;;;;-1.94;100.00;100265.97;4843019;29;20193;-80
2022/01/27 06:55:13;;;;;;;29.20;18.43;;;;;;;-1.99;100.00;100258.47;4858016;29;20245;-80
2022/01/27 06:57:40;;;;;;;28.33;18.23;;;;;;;-2.00;100.00;100264.66;4842788;29;20189;-80
2022/01/27 07:00:08;;;;;;;29.20;20.17;;;;;;;-1.94;100.00;100247.59;4842603;29;20235;-80
2022/01/27 07:02:35;;;;;;;30.00;20.60;;;;;;;-1.82;100.00;100238.72;4858002;29;20196;-80
2022/01/27 07:05:03;;;;;;;30.87;20.13;;;;;;;-1.72;100.00;100234.34;4843709;29;20189;-81
2022/01/27 07:07:30;;;;;;;29.97;19.57;;;;;;;-1.64;100.00;100221.44;4842705;29;20193;-80
2022/01/27 07:09:56;;;;;;;30.13;19.43;;;;;;;-1.64;100.00;100226.69;4857946;29;20220;-79
2022/01/27 07:12:23;;;;;;;30.50;19.87;;;;;;;-1.62;100.00;100224.75;4857775;29;20197;-80
2022/01/27 07:14:50;;;;;;;30.40;19.30;;;;;;;-1.52;100.00;100212.53;4842547;29;20199;-80
2022/01/27 07:17:19;;;;;;;29.17;19.07;;;;;;;-1.43;100.00;100214.38;4857555;29;20201;-80
2022/01/27 07:19:46;;;;;;;28.10;19.67;;;;;;;-1.34;100.00;100213.59;4842484;29;20227;-80
2022/01/27 07:22:13;;;;;;;33.13;20.40;;;;;;;-1.26;100.00;100210.31;4842368;29;20574;-80
2022/01/27 07:24:40;;;;;;;32.03;19.63;;;;;;;-1.08;100.00;100215.81;4857573;29;20197;-80
2022/01/27 07:27:08;;;;;;;28.63;19.50;;;;;;;-1.04;100.00;100202.28;4857198;29;20632;-80
2022/01/27 07:29:35;;;;;;;30.47;19.80;;;;;;;-0.86;100.00;100205.13;4857712;29;20221;-80
2022/01/27 07:32:02;;;;;;;28.57;18.97;;;;;;;-0.81;100.00;100194.19;4827246;29;20197;-80
2022/01/27 07:34:29;;;;;;;31.27;20.30;;;;;;;-0.72;100.00;100188.13;4842218;29;20339;-80
2022/01/27 07:36:59;;;;;;;26.90;18.97;;;;;;;-0.56;100.00;100201.63;4842102;29;20197;-80
2022/01/27 07:39:26;;;;;;;29.80;19.40;;;;;;;-0.50;100.00;100187.91;4826995;29;20332;-80
2022/01/27 07:41:52;;;;;;;27.93;19.50;;;;;;;-0.50;100.00;100185.25;4843070;29;20195;-80
2022/01/27 07:44:24;;;;;;;31.30;21.07;;;;;;;-0.30;100.00;100186.97;4842261;29;20189;-80
2022/01/27 07:46:51;;;;;;;26.40;19.13;;;;;;;-0.27;100.00;100180.59;4826979;29;20201;-80
2022/01/27 07:49:17;;;;;;;28.70;19.43;;;;;;;-0.23;100.00;100166.16;4842040;29;20204;-80
2022/01/27 07:51:44;;;;;;;28.17;19.63;;;;;;;-0.14;100.00;100178.53;4857277;29;20216;-80
2022/01/27 07:54:11;;;;;;;28.20;20.00;;;;;;;0.00;100.00;100186.84;4857350;29;20185;-80
2022/01/27 07:56:37;;;;;;;28.47;19.53;;;;;;;-0.02;100.00;100173.00;4841912;29;20197;-80
2022/01/27 07:59:04;;;;;;;31.60;19.70;;;;;;;0.03;100.00;100180.47;4841898;29;20217;-80
2022/01/27 08:01:31;;;;;;;30.23;20.07;;;;;;;0.06;100.00;100169.66;4857008;29;20915;-80
2022/01/27 08:03:58;;;;;;;29.27;20.40;;;;;;;0.13;100.00;100172.56;4826946;29;20698;-80
2022/01/27 08:06:25;;;;;;;28.37;20.13;;;;;;;0.21;100.00;100163.00;4856971;29;20189;-80
2022/01/27 08:08:52;;;;;;;29.60;19.03;;;;;;;0.28;100.00;100166.72;4857274;29;20197;-80
2022/01/27 08:11:19;;;;;;;28.97;19.97;;;;;;;0.36;100.00;100163.38;4857206;29;20557;-80
2022/01/27 08:13:46;;;;;;;27.87;19.30;;;;;;;0.41;100.00;100158.53;4857022;29;20193;-81
2022/01/27 08:16:13;;;;;;;26.43;19.13;;;;;;;0.47;100.00;100142.13;4857209;29;20192;-81
2022/01/27 08:18:45;;;;;;;29.30;19.33;;;;;;;0.52;100.00;100142.53;4842084;29;20595;-80
2022/01/27 08:21:12;;;;;;;27.50;18.90;;;;;;;0.62;100.00;100140.69;4857006;29;20201;-81
2022/01/27 08:23:42;;;;;;;31.23;19.73;;;;;;;0.62;100.00;100129.31;4841884;29;20224;-81
2022/01/27 08:26:12;;;;;;;28.43;19.23;;;;;;;0.70;100.00;100132.09;4836327;29;20202;-81
2022/01/27 08:31:09;;;;;;;29.03;19.40;;;;;;;0.81;100.00;100130.06;4838816;29;20205;-81
2022/01/27 08:33:39;;;;;;;30.87;21.20;;;;;;;0.79;100.00;100116.19;4838517;29;20198;-81
2022/01/27 08:36:06;;;;;;;28.90;20.50;;;;;;;0.78;100.00;100121.63;4823519;29;20198;-81
2022/01/27 08:38:32;;;;;;;27.10;19.00;;;;;;;0.78;100.00;100119.00;4841708;29;20225;-80
2022/01/27 08:40:59;;;;;;;27.67;19.23;;;;;;;0.88;100.00;100120.63;4844803;29;20655;-79
2022/01/27 08:43:26;;;;;;;29.00;20.93;;;;;;;0.83;100.00;100099.13;4847272;29;20205;-80
2022/01/27 08:45:53;;;;;;;31.33;22.13;;;;;;;0.97;100.00;100091.69;4830954;29;20650;-81
2022/01/27 08:48:21;;;;;;;29.27;20.13;;;;;;;0.95;100.00;100096.28;4831571;29;20235;-81
2022/01/27 08:50:53;;;;;;;28.37;19.50;;;;;;;0.98;100.00;100098.63;4845991;29;20195;-81
2022/01/27 08:53:40;;;;;;;31.07;20.27;;;;;;;1.12;100.00;100106.06;4833391;29;20225;-81
2022/01/27 08:56:09;;;;;;;31.07;20.30;;;;;;;1.19;100.00;100096.56;4846267;29;20548;-80
2022/01/27 08:58:36;;;;;;;29.30;20.60;;;;;;;1.28;100.00;100106.22;4845767;29;20282;-82
2022/01/27 09:01:03;;;;;;;31.93;21.50;;;;;;;1.45;100.00;100109.84;4846760;29;20207;-80
2022/01/27 09:03:30;;;;;;;29.47;20.80;;;;;;;1.60;100.00;100100.44;4821746;29;20206;-79
2022/01/27 09:05:57;;;;;;;29.23;20.43;;;;;;;1.69;100.00;100091.59;4844500;29;20261;-82
2022/01/27 09:08:23;;;;;;;31.93;22.20;;;;;;;1.78;100.00;100083.59;4846449;29;20193;-81
2022/01/27 09:10:50;;;;;;;27.00;19.50;;;;;;;2.01;100.00;100080.47;4847255;29;20494;-80
2022/01/27 09:13:18;;;;;;;29.30;20.10;;;;;;;2.07;100.00;100075.41;4830631;29;20201;-80
2022/01/27 09:15:47;;;;;;;30.20;20.10;;;;;;;2.18;100.00;100092.84;4847432;29;20257;-81
2022/01/27 09:18:14;;;;;;;28.20;20.07;;;;;;;2.28;100.00;100079.53;4830744;29;20273;-82
2022/01/27 09:20:42;;;;;;;28.13;20.07;;;;;;;2.24;100.00;100086.09;4842694;29;20295;-80
2022/01/27 09:23:13;;;;;;;29.73;21.33;;;;;;;2.30;100.00;100094.22;4846424;29;20193;-80
2022/01/27 09:25:46;;;;;;;33.10;22.33;;;;;;;2.33;100.00;100083.38;4846048;29;20606;-79
2022/01/27 09:28:14;;;;;;;31.53;22.27;;;;;;;2.32;100.00;100081.69;4846318;29;20245;-81
2022/01/27 09:30:42;;;;;;;30.67;21.10;;;;;;;2.44;100.00;100082.25;4847732;29;20197;-79
2022/01/27 09:33:09;;;;;;;30.17;20.03;;;;;;;2.62;100.00;100089.13;4831552;29;20205;-81
2022/01/27 09:35:36;;;;;;;31.57;21.37;;;;;;;2.65;100.00;100080.06;4846431;29;20681;-80
2022/01/27 09:38:03;;;;;;;30.57;21.53;;;;;;;2.85;100.00;100068.22;4861015;29;20201;-81
2022/01/27 09:40:30;;;;;;;30.67;21.57;;;;;;;3.06;100.00;100067.81;4834158;29;20319;-79
2022/01/27 09:42:57;;;;;;;30.77;21.77;;;;;;;3.34;100.00;100078.97;4865945;29;20184;-81
2022/01/27 09:45:24;;;;;;;28.70;21.43;;;;;;;3.49;100.00;100070.25;4865199;29;20196;-79
2022/01/27 09:48:01;;;;;;;29.90;20.77;;;;;;;3.73;100.00;100065.97;4849972;29;20200;-80
2022/01/27 09:51:24;;;;;;;29.07;20.17;;;;;;;3.89;100.00;100058.81;4864957;29;20582;-79
2022/01/27 09:53:17;;;;;;;28.40;20.53;;;;;;;3.93;100.00;100059.31;4853359;29;20309;-80
2022/01/27 09:55:44;;;;;;;29.43;20.87;;;;;;;3.97;100.00;100045.56;4849723;29;20200;-80
2022/01/27 09:58:11;;;;;;;28.40;20.20;;;;;;;4.05;100.00;100050.03;4865282;29;20225;-80
2022/01/27 10:00:38;;;;;;;30.00;21.07;;;;;;;3.98;100.00;100038.44;4834355;29;20201;-81
2022/01/27 10:03:13;;;;;;;29.63;21.67;;;;;;;4.04;100.00;100032.47;4858012;29;20212;-80
2022/01/27 10:05:42;;;;;;;26.77;20.40;;;;;;;4.10;100.00;100030.97;4846279;29;20280;-80
2022/01/27 10:08:16;;;;;;;28.77;21.50;;;;;;;4.08;100.00;100023.19;4831568;29;20197;-82
2022/01/27 10:10:50;;;;;;;28.40;20.73;;;;;;;4.20;100.00;100029.78;4843412;29;20446;-82
2022/01/27 10:13:31;;;;;;;29.50;21.20;;;;;;;4.23;100.00;100020.66;4831417;29;20253;-80
2022/01/27 10:15:59;;;;;;;29.43;20.80;;;;;;;4.39;100.00;100012.66;4847387;29;20185;-80
2022/01/27 10:18:34;;;;;;;28.17;19.87;;;;;;;4.55;100.00;100002.00;4846400;29;20197;-82
2022/01/27 10:21:05;;;;;;;26.60;19.40;;;;;;;4.69;100.00;100009.25;4846194;29;20188;-79
2022/01/27 10:23:37;;;;;;;29.80;19.27;;;;;;;4.80;100.00;100016.00;4846299;29;20192;-81
2022/01/27 10:26:14;;;;;;;25.70;18.50;;;;;;;4.93;100.00;99996.84;4831244;29;20276;-80
2022/01/27 10:31:50;;;;;;;22.93;17.03;;;;;;;5.22;100.00;99989.03;4816250;29;20317;-80
2022/01/27 10:34:18;;;;;;;22.30;16.73;;;;;;;5.26;100.00;99969.09;4845711;29;20200;-79
2022/01/27 10:36:45;;;;;;;25.27;17.60;;;;;;;5.32;100.00;99971.00;4846939;29;20207;-82
2022/01/27 10:39:18;;;;;;;24.63;17.07;;;;;;;5.56;100.00;99967.34;4846205;29;20243;-80
2022/01/27 10:42:00;;;;;;;21.70;15.13;;;;;;;5.65;99.29;99968.91;4845557;29;20254;-80
2022/01/27 10:44:43;;;;;;;21.43;15.37;;;;;;;5.73;100.00;99968.88;4845718;29;20193;-82
2022/01/27 10:47:21;;;;;;;21.57;15.80;;;;;;;5.87;100.00;99970.75;4845472;29;20193;-80
2022/01/27 10:49:59;;;;;;;21.27;16.27;;;;;;;5.93;100.00;99983.31;4814913;29;20217;-80
2022/01/27 10:52:42;;;;;;;20.27;14.63;;;;;;;5.94;98.13;99969.00;4829908;29;20219;-80
2022/01/27 10:55:20;;;;;;;19.57;15.13;;;;;;;6.19;96.40;99975.75;4845041;29;20185;-80
2022/01/27 10:57:50;;;;;;;20.20;15.20;;;;;;;6.26;96.98;99975.00;4843615;29;20215;-80
2022/01/27 11:00:21;;;;;;;21.33;15.00;;;;;;;6.24;95.99;99964.56;4842293;29;20630;-80
2022/01/27 11:02:51;;;;;;;19.70;14.67;;;;;;;6.30;94.36;99968.31;4843717;29;20276;-81
2022/01/27 11:05:19;;;;;;;18.50;14.00;;;;;;;6.20;91.56;99952.63;4845378;29;20538;-80
2022/01/27 11:07:46;;;;;;;19.47;14.77;;;;;;;6.30;90.22;99960.34;4829295;29;20205;-79
2022/01/27 11:10:15;;;;;;;18.87;14.20;;;;;;;6.38;91.72;99953.09;4844158;29;20188;-80
2022/01/27 11:12:43;;;;;;;18.50;15.27;;;;;;;6.47;92.16;99938.66;4845852;29;20189;-80
2022/01/27 11:15:16;;;;;;;20.00;15.17;;;;;;;6.70;90.19;99956.34;4814326;29;20193;-80
2022/01/27 11:17:44;;;;;;;18.27;14.33;;;;;;;6.65;89.71;99938.25;4829272;29;20204;-80
2022/01/27 11:20:38;;;;;;;19.37;14.83;;;;;;;6.77;87.95;99903.97;4844429;29;20628;-81
2022/01/27 11:23:47;;;;;;;17.53;13.53;;;;;;;6.89;87.05;99939.75;4829890;29;20191;-80
2022/01/27 11:25:56;;;;;;;19.17;13.97;;;;;;;6.87;85.77;99920.47;4827719;29;20638;-82
2022/01/27 11:28:23;;;;;;;18.40;13.90;;;;;;;6.91;84.72;99921.75;4843714;29;20193;-81
2022/01/27 11:31:18;;;;;;;18.97;13.70;;;;;;;6.97;84.70;99913.00;4843905;29;20196;-80
2022/01/27 11:33:58;;;;;;;17.43;13.30;;;;;;;7.05;84.54;99908.38;4844319;29;20250;-79
2022/01/27 11:36:25;;;;;;;18.00;13.63;;;;;;;7.09;83.70;99876.88;4844516;29;20185;-81
2022/01/27 11:38:52;;;;;;;16.07;13.27;;;;;;;7.11;83.10;99896.13;4844563;29;20241;-80
2022/01/27 11:41:44;;;;;;;16.43;12.90;;;;;;;7.31;81.87;99894.47;4843674;29;20200;-80
2022/01/27 11:44:20;;;;;;;16.83;13.33;;;;;;;7.22;81.74;99887.63;4843842;29;20612;-80
2022/01/27 11:47:10;;;;;;;17.20;12.80;;;;;;;7.37;82.85;99891.03;4843630;29;20237;-80
2022/01/27 11:49:59;;;;;;;19.57;14.07;;;;;;;7.47;83.50;99882.69;4828633;29;20209;-81
2022/01/27 11:52:32;;;;;;;40.67;31.27;;;;;;;7.43;82.51;99870.78;4844633;29;20248;-81
2022/01/27 11:55:29;;;;;;;160.57;91.10;;;;;;;7.55;82.94;99857.75;4843625;29;20193;-81
2022/01/27 11:58:00;;;;;;;230.33;137.10;;;;;;;7.61;82.42;99857.78;4821028;29;20212;-81
2022/01/27 12:00:29;;;;;;;130.30;87.03;;;;;;;7.70;82.03;99845.94;4828417;29;20225;-80
2022/01/27 12:02:56;;;;;;;23.70;17.87;;;;;;;7.85;79.42;99829.81;4843682;29;20508;-80
2022/01/27 12:05:27;;;;;;;24.77;21.33;;;;;;;7.95;77.02;99832.97;4844757;29;20249;-80